Terminal Aerodrome Forecast
Issued by NWS Pittsburgh, PA

Home | Current Version | Previous Version | Text Only | Print | Product List | Glossary On
Versions: 1 2 3 4 5 6 7 8 9 10 11 12 13 14 15 16 17 18 19 20 21 22 23 24 25 26
820
FTUS41 KPBZ 072108 AAA
TAFPIT
TAF AMD
KPIT 072108Z 0721/0824 22008KT P6SM SKC
     FM080000 16005KT P6SM BKN120
     FM081700 14005KT P6SM -RA OVC035
     FM082000 16005KT 3SM -RASN OVC020
     FM082300 20005KT 2SM -SN BR OVC010=

USA.gov is the U.S. government's official web portal to all federal, state and local government web resources and services.